Time;durP1;ratioP1;P1;durP2;ratioP2;P2;SDS_P1;SDS_P2;PMS_P1;PMS_P2;Temp;Humidity;BMP_temperature;BMP_pressure;BME280_temperature;BME280_humidity;BME280_pressure;Samples;Min_cycle;Max_cycle;Signal;HPM_P1;HPM_P2
2023/02/14 00:00:10;;;;;;;8.77;5.10;;;;;;;3.65;100.00;103024.81;5024830;28;20055;-83
2023/02/14 00:02:37;;;;;;;9.87;5.67;;;;;;;3.58;100.00;103022.75;4994110;28;20101;-83
2023/02/14 00:05:04;;;;;;;10.03;5.70;;;;;;;3.53;100.00;103019.03;4996996;28;20092;-83
2023/02/14 00:07:30;;;;;;;10.37;5.57;;;;;;;3.51;100.00;103024.19;4991718;28;20037;-84
2023/02/14 00:09:57;;;;;;;12.00;6.37;;;;;;;3.58;100.00;103031.47;4992776;28;20038;-84
2023/02/14 00:12:24;;;;;;;9.00;5.23;;;;;;;3.56;100.00;103027.91;4992922;28;20052;-81
2023/02/14 00:17:36;;;;;;;10.40;5.87;;;;;;;3.52;100.00;103027.69;5001013;28;20033;-81
2023/02/14 00:20:03;;;;;;;11.97;5.20;;;;;;;3.66;100.00;103029.22;4988382;28;20061;-85
2023/02/14 00:22:29;;;;;;;8.43;5.33;;;;;;;3.55;100.00;103025.25;5022769;28;20050;-83
2023/02/14 00:24:56;;;;;;;8.50;5.03;;;;;;;3.51;100.00;103025.91;4995218;28;20514;-83
2023/02/14 00:27:23;;;;;;;9.67;5.27;;;;;;;3.50;100.00;103018.88;5011614;28;20046;-84
2023/02/14 00:29:50;;;;;;;9.90;5.33;;;;;;;3.49;100.00;103020.63;5001937;28;20042;-82
2023/02/14 00:32:16;;;;;;;10.60;6.13;;;;;;;3.49;100.00;103024.94;5005786;28;20101;-82
2023/02/14 00:34:44;;;;;;;8.13;4.93;;;;;;;3.48;100.00;103031.91;5014117;28;20113;-82
2023/02/14 00:37:11;;;;;;;11.40;5.70;;;;;;;3.48;100.00;103026.66;5008692;28;20045;-83
2023/02/14 00:39:38;;;;;;;10.40;5.30;;;;;;;3.50;100.00;103026.72;4997709;28;20037;-84
2023/02/14 00:42:04;;;;;;;11.07;6.03;;;;;;;3.47;100.00;103019.66;5025849;28;20054;-81
2023/02/14 00:44:31;;;;;;;9.10;5.83;;;;;;;3.45;100.00;103023.00;4996040;28;20034;-83
2023/02/14 00:46:58;;;;;;;11.97;6.70;;;;;;;3.70;100.00;103023.31;5026292;28;20088;-84
2023/02/14 00:49:24;;;;;;;11.53;6.60;;;;;;;3.52;100.00;103027.69;5014380;28;20066;-84
2023/02/14 00:51:51;;;;;;;9.47;5.27;;;;;;;3.47;100.00;103027.50;4997708;28;20045;-83
2023/02/14 00:54:18;;;;;;;7.33;5.07;;;;;;;3.47;100.00;103021.38;5013571;28;20061;-84
2023/02/14 00:56:44;;;;;;;8.53;4.97;;;;;;;3.44;100.00;103024.72;5029661;28;20038;-83
2023/02/14 00:59:11;;;;;;;11.03;5.40;;;;;;;3.42;100.00;103017.63;5003037;28;20042;-80
2023/02/14 01:01:38;;;;;;;12.23;5.40;;;;;;;3.39;100.00;103031.47;4987164;28;20050;-84
2023/02/14 01:04:05;;;;;;;8.70;5.17;;;;;;;3.40;100.00;103022.81;4999872;28;20202;-83
2023/02/14 01:06:31;;;;;;;10.60;5.00;;;;;;;3.41;100.00;103021.97;5014225;28;20073;-82
2023/02/14 01:08:58;;;;;;;8.33;4.80;;;;;;;3.40;100.00;103020.19;5022761;28;20484;-83
2023/02/14 01:11:25;;;;;;;7.73;4.83;;;;;;;3.39;100.00;103015.78;4997186;28;20137;-85
2023/02/14 01:13:56;;;;;;;8.30;5.30;;;;;;;3.34;100.00;103012.06;4997944;28;20492;-83
2023/02/14 01:16:24;;;;;;;9.70;5.10;;;;;;;3.36;100.00;103013.00;5007087;23;20057;-79
2023/02/14 01:18:51;;;;;;;8.33;5.10;;;;;;;3.36;100.00;103016.56;5003441;28;20084;-79
2023/02/14 01:21:23;;;;;;;8.43;4.90;;;;;;;3.36;100.00;103008.72;4997682;28;20042;-80
2023/02/14 01:23:52;;;;;;;9.20;4.97;;;;;;;3.35;100.00;103008.63;5013435;28;20030;-79
2023/02/14 01:26:20;;;;;;;7.60;4.60;;;;;;;3.58;100.00;103009.69;4987925;28;20066;-80
2023/02/14 01:28:47;;;;;;;8.23;4.77;;;;;;;3.51;100.00;103005.00;4991782;28;20869;-80
2023/02/14 01:31:25;;;;;;;8.57;4.63;;;;;;;3.39;100.00;103002.72;4972480;28;20042;-81
2023/02/14 01:33:53;;;;;;;6.70;4.37;;;;;;;3.36;100.00;103006.09;4979287;28;20042;-80
2023/02/14 01:36:27;;;;;;;7.33;4.23;;;;;;;3.38;100.00;102999.22;4958296;28;20125;-79
2023/02/14 01:38:57;;;;;;;7.47;4.43;;;;;;;3.34;100.00;103005.09;4978987;28;20045;-80
2023/02/14 01:41:26;;;;;;;9.90;5.13;;;;;;;3.35;100.00;103001.66;4960586;28;20051;-79
2023/02/14 01:44:04;;;;;;;7.77;4.93;;;;;;;3.33;100.00;102992.88;4996350;28;20048;-80
2023/02/14 01:46:33;;;;;;;8.07;5.33;;;;;;;3.32;100.00;103000.66;4985431;28;20034;-79
2023/02/14 01:49:03;;;;;;;6.77;4.67;;;;;;;3.30;100.00;102990.13;4975438;28;20031;-81
2023/02/14 01:51:30;;;;;;;9.60;5.30;;;;;;;3.28;100.00;102996.09;4978336;28;20496;-79
2023/02/14 01:53:58;;;;;;;8.13;4.37;;;;;;;3.27;100.00;102992.56;4981078;28;20053;-80
2023/02/14 01:56:29;;;;;;;7.57;4.60;;;;;;;3.27;100.00;102996.91;4993331;28;20046;-79
2023/02/14 01:58:58;;;;;;;6.87;4.53;;;;;;;3.28;100.00;102999.63;4975232;28;20057;-80
2023/02/14 02:01:24;;;;;;;8.27;5.23;;;;;;;3.26;100.00;102989.91;5001488;28;20041;-79
2023/02/14 02:03:56;;;;;;;8.63;4.90;;;;;;;3.23;100.00;102993.28;4990215;28;20035;-79
2023/02/14 02:06:35;;;;;;;8.07;4.53;;;;;;;3.23;100.00;102988.06;4976970;28;20049;-81
2023/02/14 02:09:08;;;;;;;10.03;4.60;;;;;;;3.27;100.00;102989.97;4954014;28;20058;-81
2023/02/14 02:11:36;;;;;;;8.40;4.97;;;;;;;3.27;100.00;102984.75;4972839;28;20129;-81
2023/02/14 02:14:04;;;;;;;8.63;5.43;;;;;;;3.34;100.00;102984.22;4991705;28;20518;-82
2023/02/14 02:16:39;;;;;;;9.73;5.90;;;;;;;3.39;100.00;102994.88;4973984;28;20047;-81
2023/02/14 02:19:31;;;;;;;9.30;5.10;;;;;;;3.30;100.00;102976.19;4992531;28;20042;-81
2023/02/14 02:22:04;;;;;;;8.73;5.53;;;;;;;3.24;100.00;102982.00;4986258;28;20045;-81
2023/02/14 02:24:50;;;;;;;7.97;5.03;;;;;;;3.23;100.00;102985.44;4986816;28;20068;-81
2023/02/14 02:27:18;;;;;;;9.73;5.57;;;;;;;3.21;100.00;102984.47;4987932;28;20427;-83
2023/02/14 02:30:15;;;;;;;11.27;6.20;;;;;;;3.21;100.00;102989.72;5006887;28;20031;-83
2023/02/14 02:32:51;;;;;;;7.70;4.60;;;;;;;3.20;100.00;102989.63;4998385;28;20050;-83
2023/02/14 02:35:30;;;;;;;6.50;4.93;;;;;;;3.19;100.00;102979.97;4957934;28;20050;-81
2023/02/14 02:38:33;;;;;;;6.27;4.57;;;;;;;3.18;100.00;102988.66;4991027;28;20088;-82
2023/02/14 02:41:22;;;;;;;7.43;4.03;;;;;;;3.17;100.00;102990.38;4976830;28;20038;-82
2023/02/14 02:44:11;;;;;;;8.03;4.40;;;;;;;3.17;100.00;102987.75;4999643;28;20389;-83
2023/02/14 02:46:52;;;;;;;8.37;4.80;;;;;;;3.21;100.00;102991.44;4977846;28;20050;-83
2023/02/14 02:58:42;;;;;;;9.10;5.20;;;;;;;3.15;100.00;102989.41;4991987;28;20038;-83
2023/02/14 03:01:10;;;;;;;9.20;4.87;;;;;;;3.16;100.00;102988.59;4988943;28;21843;-83
2023/02/14 03:06:24;;;;;;;8.83;5.70;;;;;;;3.14;100.00;102995.47;4995506;28;20039;-84
2023/02/14 03:08:50;;;;;;;9.27;4.83;;;;;;;3.15;100.00;102997.25;4973128;28;20030;-83
2023/02/14 03:11:17;;;;;;;7.83;5.50;;;;;;;3.15;100.00;102991.13;4975472;28;20038;-83
2023/02/14 03:14:13;;;;;;;9.60;5.13;;;;;;;3.18;100.00;102991.25;4983216;28;20050;-84
2023/02/14 03:16:49;;;;;;;10.23;5.60;;;;;;;3.26;100.00;102995.13;4984181;28;20056;-84
2023/02/14 03:19:31;;;;;;;9.87;5.60;;;;;;;3.25;100.00;102985.50;4991517;28;20038;-83
2023/02/14 03:22:04;;;;;;;9.50;5.80;;;;;;;3.20;100.00;102987.03;4978775;28;20035;-83
2023/02/14 03:25:10;;;;;;;10.57;5.03;;;;;;;3.17;100.00;102994.69;4972380;28;20038;-84
2023/02/14 03:27:48;;;;;;;9.47;5.17;;;;;;;3.20;100.00;102985.31;4977338;28;20038;-83
2023/02/14 03:30:40;;;;;;;6.93;4.37;;;;;;;3.21;100.00;102988.81;4980330;28;20042;-83
2023/02/14 03:33:30;;;;;;;8.27;5.00;;;;;;;3.17;100.00;102985.16;4976289;28;20047;-83
2023/02/14 03:36:04;;;;;;;8.40;5.43;;;;;;;3.22;100.00;102990.59;4976543;28;20061;-84
2023/02/14 03:38:40;;;;;;;9.48;5.70;;;;;;;3.18;100.00;102989.53;4975916;28;20042;-83
2023/02/14 03:41:11;;;;;;;9.37;4.87;;;;;;;3.21;100.00;102994.03;4977285;28;20092;-83
2023/02/14 03:43:41;;;;;;;10.53;5.90;;;;;;;3.18;100.00;102994.75;4993157;28;21476;-83
2023/02/14 03:46:12;;;;;;;9.50;5.80;;;;;;;3.21;100.00;103002.75;4977176;28;20042;-84
2023/02/14 03:48:40;;;;;;;9.40;5.03;;;;;;;3.23;100.00;103001.13;4980473;28;20066;-83
2023/02/14 03:51:09;;;;;;;12.13;5.40;;;;;;;3.24;100.00;102996.78;4954551;28;20042;-83
2023/02/14 03:53:39;;;;;;;7.80;5.27;;;;;;;3.23;100.00;103000.22;4962282;28;20404;-83
2023/02/14 03:56:17;;;;;;;12.83;5.97;;;;;;;3.20;100.00;102990.53;4965826;28;20038;-83
2023/02/14 03:58:50;;;;;;;8.10;5.20;;;;;;;3.16;100.00;102996.41;4972318;28;20041;-84
2023/02/14 04:01:23;;;;;;;6.87;4.67;;;;;;;3.16;100.00;102990.31;4982640;28;20057;-83
2023/02/14 04:03:51;;;;;;;10.23;5.17;;;;;;;3.14;100.00;102987.63;4977875;28;20050;-83
2023/02/14 04:06:19;;;;;;;7.20;5.23;;;;;;;3.10;100.00;103003.94;4982212;28;20038;-83
2023/02/14 04:08:46;;;;;;;6.63;4.50;;;;;;;3.12;100.00;103001.44;4981825;28;20589;-83
2023/02/14 04:11:13;;;;;;;7.67;4.43;;;;;;;3.11;100.00;103000.50;4991484;28;20105;-83
2023/02/14 04:13:39;;;;;;;8.30;5.10;;;;;;;3.09;100.00;102994.34;4986119;28;20038;-83
2023/02/14 04:16:06;;;;;;;6.50;4.67;;;;;;;3.10;100.00;102998.72;4965772;28;21484;-83
2023/02/14 04:21:18;;;;;;;7.93;5.23;;;;;;;3.09;100.00;102992.63;4992128;28;20038;-83
2023/02/14 04:23:45;;;;;;;7.00;4.83;;;;;;;3.08;100.00;102990.81;4998974;28;20042;-83
2023/02/14 04:26:12;;;;;;;7.87;4.60;;;;;;;3.10;100.00;102983.94;5011326;28;20073;-83
2023/02/14 04:28:39;;;;;;;8.63;5.00;;;;;;;3.22;100.00;102990.59;4983041;28;20064;-84
2023/02/14 04:31:06;;;;;;;9.73;4.57;;;;;;;3.12;100.00;102988.38;4966713;28;20656;-82
2023/02/14 04:33:33;;;;;;;8.80;5.60;;;;;;;3.08;100.00;102995.16;4977149;28;20043;-82
2023/02/14 04:35:59;;;;;;;8.50;4.37;;;;;;;3.06;100.00;102991.59;4998922;28;20046;-83
2023/02/14 04:38:26;;;;;;;6.67;4.60;;;;;;;3.10;100.00;102993.50;4992848;28;20046;-83
2023/02/14 04:40:53;;;;;;;7.33;4.57;;;;;;;3.06;100.00;102979.41;4989235;28;20045;-83
2023/02/14 04:43:19;;;;;;;8.53;4.80;;;;;;;3.07;100.00;102982.94;4987076;28;20049;-82
2023/02/14 04:45:46;;;;;;;12.53;5.53;;;;;;;3.04;100.00;102978.47;4987795;28;20506;-83
2023/02/14 04:48:13;;;;;;;7.13;4.60;;;;;;;3.04;100.00;102975.84;4993512;28;20562;-83
2023/02/14 04:50:39;;;;;;;6.73;4.47;;;;;;;3.02;100.00;102973.97;4961089;28;20045;-82
2023/02/14 04:53:06;;;;;;;8.57;4.80;;;;;;;3.09;100.00;102974.34;4999826;28;20071;-83
2023/02/14 04:55:33;;;;;;;8.77;5.63;;;;;;;3.18;100.00;102968.66;4986966;28;20056;-83
2023/02/14 04:57:59;;;;;;;8.30;5.37;;;;;;;3.13;100.00;102970.16;4983224;28;20587;-82
2023/02/14 05:00:26;;;;;;;7.17;5.20;;;;;;;3.07;100.00;102972.47;4977704;28;20092;-83
2023/02/14 05:02:53;;;;;;;7.77;4.63;;;;;;;3.06;100.00;102973.31;4959051;28;20049;-83
2023/02/14 05:05:20;;;;;;;7.20;5.13;;;;;;;3.13;100.00;102978.00;4982955;28;20468;-82
2023/02/14 05:07:46;;;;;;;7.40;4.57;;;;;;;3.04;100.00;102974.97;4999573;28;20042;-83
2023/02/14 05:10:13;;;;;;;9.37;5.57;;;;;;;3.00;100.00;102978.22;4990107;28;20058;-84
2023/02/14 05:12:40;;;;;;;8.60;4.50;;;;;;;2.99;100.00;102985.16;4973144;28;20038;-83
2023/02/14 05:15:07;;;;;;;8.90;5.33;;;;;;;3.06;100.00;102975.91;4978188;28;20048;-82
2023/02/14 05:17:35;;;;;;;6.70;4.90;;;;;;;3.01;100.00;102966.97;4988322;28;20118;-83
2023/02/14 05:20:04;;;;;;;7.60;4.13;;;;;;;2.97;100.00;102981.59;4970920;28;20495;-82
2023/02/14 05:22:31;;;;;;;8.40;5.57;;;;;;;2.97;100.00;102976.38;5000918;28;20034;-82
2023/02/14 05:24:58;;;;;;;7.47;5.03;;;;;;;2.96;100.00;102968.47;4978175;28;20042;-82
2023/02/14 05:27:24;;;;;;;7.60;4.10;;;;;;;2.93;100.00;102971.81;4961361;28;20057;-83
2023/02/14 05:29:51;;;;;;;7.33;5.07;;;;;;;2.97;100.00;102963.31;4994264;28;20407;-82
2023/02/14 05:32:17;;;;;;;7.07;4.83;;;;;;;3.07;100.00;102972.47;4959144;28;20514;-82
2023/02/14 05:34:44;;;;;;;11.83;6.13;;;;;;;3.00;100.00;102979.13;4970457;28;20372;-83
2023/02/14 05:37:11;;;;;;;7.87;4.70;;;;;;;2.95;100.00;102975.41;4995228;28;20050;-82
2023/02/14 05:39:37;;;;;;;11.17;5.70;;;;;;;2.94;100.00;102970.09;4985723;28;20033;-83
2023/02/14 05:42:04;;;;;;;8.43;5.20;;;;;;;2.90;100.00;102962.97;4985544;28;20046;-82
2023/02/14 05:44:31;;;;;;;9.57;5.13;;;;;;;2.90;100.00;102969.06;4976334;28;20042;-82
2023/02/14 05:46:57;;;;;;;9.50;5.20;;;;;;;3.01;100.00;102974.78;4978042;28;20141;-82
2023/02/14 05:49:24;;;;;;;9.03;5.40;;;;;;;3.12;100.00;102968.38;4991081;28;20050;-82
2023/02/14 05:51:50;;;;;;;8.53;4.73;;;;;;;3.05;100.00;102967.19;4973132;28;20418;-83
2023/02/14 05:54:17;;;;;;;9.30;4.63;;;;;;;2.94;100.00;102981.44;4982046;28;20462;-84
2023/02/14 05:56:44;;;;;;;8.57;5.23;;;;;;;2.96;100.00;102981.53;4971714;28;20045;-83
2023/02/14 05:59:13;;;;;;;8.73;4.97;;;;;;;3.16;100.00;102969.41;4972054;28;20037;-83
2023/02/14 06:01:39;;;;;;;8.97;5.53;;;;;;;2.99;100.00;102972.13;4965942;28;20522;-82
2023/02/14 06:04:06;;;;;;;11.37;5.83;;;;;;;2.94;100.00;102970.09;4975586;28;20061;-83
2023/02/14 06:06:33;;;;;;;8.47;5.10;;;;;;;2.90;100.00;102960.34;4973391;28;20066;-82
2023/02/14 06:09:02;;;;;;;9.20;5.47;;;;;;;2.92;100.00;102966.53;4971449;28;20034;-82
2023/02/14 06:11:28;;;;;;;9.50;5.27;;;;;;;2.93;100.00;102969.19;4975019;28;20487;-82
2023/02/14 06:13:58;;;;;;;10.47;4.87;;;;;;;2.90;100.00;102970.78;4991892;28;20475;-84
2023/02/14 06:16:25;;;;;;;9.30;7.00;;;;;;;2.99;100.00;102972.13;4955256;28;20571;-83
2023/02/14 06:18:51;;;;;;;10.13;6.00;;;;;;;3.01;100.00;102966.97;4978816;28;20042;-83
2023/02/14 06:21:18;;;;;;;10.27;6.47;;;;;;;2.94;100.00;102972.72;4969292;28;20055;-83
2023/02/14 06:23:44;;;;;;;9.77;5.20;;;;;;;2.90;100.00;102969.06;4971336;28;20095;-84
2023/02/14 06:26:11;;;;;;;10.67;5.30;;;;;;;2.88;100.00;102967.22;4973443;28;20045;-84
2023/02/14 06:28:38;;;;;;;7.93;4.87;;;;;;;2.90;100.00;102965.56;4991923;28;20435;-83
2023/02/14 06:31:05;;;;;;;8.33;5.07;;;;;;;3.00;100.00;102962.56;4976071;28;20081;-82
2023/02/14 06:33:31;;;;;;;9.37;4.97;;;;;;;3.06;100.00;102966.38;4977113;28;20129;-82
2023/02/14 06:35:58;;;;;;;8.63;4.37;;;;;;;2.96;100.00;102963.25;4951634;28;20278;-84
2023/02/14 06:38:25;;;;;;;6.13;4.37;;;;;;;2.88;100.00;102968.09;4976283;28;20424;-80
2023/02/14 06:40:51;;;;;;;9.17;4.03;;;;;;;2.88;100.00;102969.81;4972284;28;20046;-80
2023/02/14 06:43:18;;;;;;;7.47;4.27;;;;;;;2.88;100.00;102968.09;4977717;28;20125;-81
2023/02/14 06:45:45;;;;;;;7.23;4.17;;;;;;;2.90;100.00;102969.06;4957850;28;20085;-80
2023/02/14 06:48:12;;;;;;;6.47;4.03;;;;;;;2.92;100.00;102963.91;4990607;28;20035;-80
2023/02/14 06:50:39;;;;;;;6.77;4.70;;;;;;;2.97;100.00;102959.81;4964486;28;20504;-80
2023/02/14 06:53:05;;;;;;;9.30;4.80;;;;;;;2.97;100.00;102965.03;4961099;28;20046;-81
2023/02/14 06:55:32;;;;;;;7.50;4.27;;;;;;;3.06;100.00;102974.19;4977023;28;20039;-80
2023/02/14 06:57:59;;;;;;;8.10;4.63;;;;;;;3.16;100.00;102969.41;4961006;28;20046;-80
2023/02/14 07:00:25;;;;;;;8.97;4.40;;;;;;;3.13;100.00;102972.78;4961079;28;20585;-81
2023/02/14 07:02:52;;;;;;;8.17;4.47;;;;;;;3.06;100.00;102971.59;4993806;28;20042;-80
2023/02/14 07:05:19;;;;;;;6.80;4.23;;;;;;;3.05;100.00;102968.91;4978819;28;20054;-80
2023/02/14 07:07:46;;;;;;;10.60;5.30;;;;;;;3.13;100.00;102966.66;4988346;28;20545;-80
2023/02/14 07:10:13;;;;;;;9.37;4.87;;;;;;;3.10;100.00;102962.16;4982961;28;20033;-81
2023/02/14 07:12:40;;;;;;;9.53;5.40;;;;;;;3.05;100.00;102967.19;5001346;28;20073;-80
2023/02/14 07:15:09;;;;;;;10.83;5.67;;;;;;;3.12;100.00;102971.00;4991767;28;20046;-80
2023/02/14 07:17:36;;;;;;;8.90;5.17;;;;;;;3.10;100.00;102973.50;4958503;28;20047;-81
2023/02/14 07:20:05;;;;;;;10.63;5.20;;;;;;;3.10;100.00;102964.78;4976975;28;20043;-81
2023/02/14 07:22:32;;;;;;;10.43;5.40;;;;;;;3.12;100.00;102970.09;4990852;28;20042;-81
2023/02/14 07:24:59;;;;;;;10.53;5.77;;;;;;;3.13;100.00;102967.56;4970626;28;20050;-81
2023/02/14 07:27:26;;;;;;;9.57;4.77;;;;;;;3.16;100.00;102961.56;4985864;28;20053;-82
2023/02/14 07:29:52;;;;;;;10.03;6.20;;;;;;;3.22;100.00;102962.75;4959976;28;20389;-80
2023/02/14 07:32:20;;;;;;;12.17;5.70;;;;;;;3.24;100.00;102962.81;4992618;28;20050;-81
2023/02/14 07:34:47;;;;;;;10.30;5.93;;;;;;;3.24;100.00;102965.44;4975237;28;20041;-82
2023/02/14 07:37:13;;;;;;;18.97;10.17;;;;;;;3.27;100.00;102969.06;4981588;28;20041;-81
2023/02/14 07:39:40;;;;;;;21.83;10.93;;;;;;;3.30;100.00;102958.78;4987165;28;20058;-81
2023/02/14 07:42:07;;;;;;;19.93;9.97;;;;;;;3.33;100.00;102966.75;4991413;28;20534;-81
2023/02/14 07:44:34;;;;;;;17.83;8.93;;;;;;;3.38;100.00;102960.03;5008051;28;20042;-81
2023/02/14 07:47:00;;;;;;;15.27;8.80;;;;;;;3.38;100.00;102960.03;4992305;28;20046;-81
2023/02/14 07:49:27;;;;;;;18.27;9.10;;;;;;;3.37;100.00;102970.41;4992890;28;20042;-80
2023/02/14 07:51:54;;;;;;;22.77;10.07;;;;;;;3.40;100.00;102975.75;4993617;28;20042;-80
2023/02/14 07:54:20;;;;;;;22.57;11.67;;;;;;;3.44;100.00;102968.94;4972564;28;20077;-80
2023/02/14 07:56:47;;;;;;;22.77;10.87;;;;;;;3.44;100.00;102971.56;4992731;28;20076;-80
2023/02/14 07:59:14;;;;;;;18.63;10.13;;;;;;;3.46;100.00;102975.16;4976378;28;20046;-80
2023/02/14 08:01:41;;;;;;;14.80;7.30;;;;;;;3.36;100.00;102979.97;4956750;28;20047;-80
2023/02/14 08:04:08;;;;;;;10.37;6.47;;;;;;;3.41;100.00;102984.50;4962133;28;20050;-79
2023/02/14 08:06:34;;;;;;;10.63;5.40;;;;;;;3.45;100.00;102992.56;4961775;28;20038;-80
2023/02/14 08:09:01;;;;;;;9.87;5.90;;;;;;;3.49;100.00;102989.25;4994194;28;20093;-80
2023/02/14 08:14:13;;;;;;;9.33;5.33;;;;;;;3.76;100.00;102986.09;4992416;28;20570;-80
2023/02/14 08:16:39;;;;;;;9.70;5.57;;;;;;;3.82;100.00;102991.59;4991700;28;20081;-80
2023/02/14 08:19:06;;;;;;;8.30;5.10;;;;;;;3.79;100.00;102991.47;4976121;28;20113;-81
2023/02/14 08:21:33;;;;;;;8.60;4.83;;;;;;;3.76;100.00;102989.59;4955146;28;20043;-80
2023/02/14 08:24:00;;;;;;;7.67;5.23;;;;;;;3.78;100.00;102985.31;4991528;28;20041;-80
2023/02/14 08:26:26;;;;;;;10.60;6.03;;;;;;;3.88;100.00;102976.19;4966912;28;20061;-80
2023/02/14 08:28:53;;;;;;;13.97;7.47;;;;;;;3.94;100.00;102976.44;4959140;28;20042;-79
2023/02/14 08:31:22;;;;;;;17.93;7.10;;;;;;;3.85;100.00;102991.72;4992504;28;20105;-82
2023/02/14 08:34:00;;;;;;;16.87;8.07;;;;;;;3.91;100.00;102987.66;4970699;28;20062;-79
2023/02/14 08:36:27;;;;;;;21.77;10.60;;;;;;;4.01;100.00;102993.28;4987115;28;20423;-79
2023/02/14 08:38:54;;;;;;;28.27;12.57;;;;;;;4.18;100.00;102984.44;4988608;28;20042;-81
2023/02/14 08:41:21;;;;;;;27.13;12.87;;;;;;;4.21;100.00;102992.44;4994813;28;20038;-81
2023/02/14 08:43:48;;;;;;;25.83;13.03;;;;;;;4.19;100.00;102991.47;4974569;28;20069;-82
2023/02/14 08:46:15;;;;;;;27.70;12.90;;;;;;;4.18;100.00;102992.31;4974481;28;20050;-81
2023/02/14 08:48:43;;;;;;;25.57;12.57;;;;;;;4.24;100.00;103001.31;4966643;28;20559;-80
2023/02/14 08:51:12;;;;;;;26.27;15.13;;;;;;;4.29;100.00;102998.91;4978614;28;20106;-81
2023/02/14 08:53:39;;;;;;;26.93;14.10;;;;;;;4.35;100.00;103003.50;4978914;28;20073;-81
2023/02/14 08:56:09;;;;;;;22.80;12.57;;;;;;;4.39;100.00;103006.31;4975802;28;20112;-80
2023/02/14 08:58:38;;;;;;;25.30;12.40;;;;;;;4.43;100.00;103012.56;4973284;28;20476;-80
2023/02/14 09:01:18;;;;;;;28.17;13.73;;;;;;;4.59;100.00;103007.13;4971229;28;20380;-80
2023/02/14 09:03:44;;;;;;;25.97;13.00;;;;;;;4.46;100.00;103010.09;4969207;28;20043;-81
2023/02/14 09:06:14;;;;;;;30.53;14.30;;;;;;;4.40;100.00;103012.44;4980588;28;20499;-80
2023/02/14 09:08:42;;;;;;;26.70;12.50;;;;;;;4.44;100.00;103015.22;4984825;28;20074;-81
2023/02/14 09:11:14;;;;;;;26.40;12.57;;;;;;;4.49;100.00;103013.72;4969593;28;20106;-81
2023/02/14 09:13:41;;;;;;;31.17;13.87;;;;;;;4.51;100.00;103016.41;5009581;28;20034;-82
2023/02/14 09:16:09;;;;;;;28.37;15.43;;;;;;;4.49;100.00;103007.59;4981449;28;20547;-83
2023/02/14 09:18:37;;;;;;;32.47;13.43;;;;;;;4.48;100.00;103014.56;4999153;28;20482;-82
2023/02/14 09:21:09;;;;;;;27.77;13.17;;;;;;;4.50;100.00;103012.88;4973317;28;20065;-83
2023/02/14 09:23:35;;;;;;;25.20;12.87;;;;;;;4.52;100.00;103013.84;4977582;28;20043;-82
2023/02/14 09:26:04;;;;;;;28.83;13.20;;;;;;;4.62;100.00;103004.63;4979289;28;20054;-82
2023/02/14 09:28:32;;;;;;;36.43;16.87;;;;;;;4.70;100.00;103007.56;4993695;28;20038;-82
2023/02/14 09:31:17;;;;;;;34.17;16.67;;;;;;;4.68;100.00;103015.38;4967623;28;20042;-83
2023/02/14 09:36:32;;;;;;;34.47;15.87;;;;;;;4.75;100.00;103009.56;4970974;28;20046;-81
2023/02/14 09:38:58;;;;;;;31.93;15.70;;;;;;;4.97;99.96;103008.72;4998732;28;20073;-82
2023/02/14 09:41:28;;;;;;;30.97;14.73;;;;;;;5.06;97.02;103009.06;4960202;28;20500;-83
2023/02/14 09:44:18;;;;;;;29.27;14.50;;;;;;;4.92;97.95;103010.25;4967922;28;20046;-82
2023/02/14 09:46:49;;;;;;;27.27;13.10;;;;;;;4.84;100.00;103014.28;4987821;28;20054;-82
2023/02/14 09:49:28;;;;;;;31.00;14.33;;;;;;;4.80;100.00;103010.66;4973560;28;20062;-83
2023/02/14 09:51:55;;;;;;;28.13;13.90;;;;;;;4.83;98.74;103007.25;4962270;28;20166;-82
2023/02/14 09:54:26;;;;;;;27.17;12.87;;;;;;;4.95;98.76;103015.59;4958158;28;20058;-82
2023/02/14 09:57:19;;;;;;;25.43;12.90;;;;;;;4.95;97.24;103015.59;4976382;28;20123;-80
2023/02/14 09:59:55;;;;;;;29.20;13.20;;;;;;;5.00;100.00;103021.03;4989163;28;20104;-80
2023/02/14 10:02:43;;;;;;;27.70;13.50;;;;;;;5.00;100.00;103018.41;4986891;28;20045;-82
2023/02/14 10:05:13;;;;;;;26.40;12.73;;;;;;;4.96;100.00;103022.66;4993003;28;20037;-81
2023/02/14 10:07:46;;;;;;;23.90;11.90;;;;;;;4.91;99.94;103024.19;4996703;28;20526;-81
2023/02/14 10:10:19;;;;;;;29.57;13.63;;;;;;;4.96;96.64;103020.03;4974794;28;20046;-81
2023/02/14 10:12:50;;;;;;;26.07;12.23;;;;;;;5.31;93.86;103005.69;4962097;28;20046;-81
2023/02/14 10:15:20;;;;;;;25.03;11.87;;;;;;;5.21;95.13;103014.03;4978144;28;20471;-81
2023/02/14 10:17:51;;;;;;;32.20;15.47;;;;;;;5.34;96.36;103023.25;4984143;28;20038;-80
2023/02/14 10:20:31;;;;;;;69.83;39.53;;;;;;;5.24;94.83;103016.75;4979789;28;20078;-81
2023/02/14 10:23:32;;;;;;;54.07;30.67;;;;;;;5.13;96.25;103012.84;4993816;28;20092;-81
2023/02/14 10:26:03;;;;;;;32.23;15.97;;;;;;;5.21;95.84;103011.41;4954184;28;20046;-81
2023/02/14 10:28:36;;;;;;;53.50;31.87;;;;;;;5.12;95.20;103007.50;4975063;28;20047;-80
2023/02/14 10:31:19;;;;;;;32.20;16.60;;;;;;;5.17;96.75;103005.97;4989910;28;20047;-81
2023/02/14 10:33:51;;;;;;;26.63;12.57;;;;;;;5.19;95.82;103007.81;4979087;28;20629;-81
2023/02/14 10:36:34;;;;;;;30.20;15.73;;;;;;;5.20;98.57;103006.09;4993055;28;20045;-81
2023/02/14 10:39:28;;;;;;;28.80;13.50;;;;;;;5.27;97.22;103001.16;4985167;28;20030;-81
2023/02/14 10:42:23;;;;;;;23.97;12.93;;;;;;;5.43;96.26;102996.50;4962983;28;20042;-80
2023/02/14 10:44:53;;;;;;;23.47;10.97;;;;;;;5.40;89.96;102994.66;4980019;28;20052;-80
2023/02/14 10:47:45;;;;;;;25.43;11.80;;;;;;;5.13;91.34;102991.88;4978512;28;20054;-81
2023/02/14 10:50:31;;;;;;;22.23;12.53;;;;;;;5.16;91.70;102991.09;4961654;28;20057;-81
2023/02/14 10:53:26;;;;;;;21.57;11.30;;;;;;;5.13;89.08;102985.72;4990502;28;20066;-80
2023/02/14 10:56:01;;;;;;;22.27;11.37;;;;;;;5.02;93.05;102986.19;4982175;28;20097;-80
2023/02/14 10:58:31;;;;;;;22.90;12.53;;;;;;;5.01;94.58;102981.78;4991627;28;20109;-80
2023/02/14 11:01:11;;;;;;;21.13;11.50;;;;;;;5.13;95.92;102985.72;4959860;28;20074;-80
2023/02/14 11:03:40;;;;;;;26.93;12.33;;;;;;;5.40;95.90;102991.16;4993271;28;20038;-81
2023/02/14 11:06:09;;;;;;;21.90;11.97;;;;;;;5.52;94.51;102987.25;4978933;28;20482;-81
2023/02/14 11:08:39;;;;;;;25.47;15.00;;;;;;;5.57;93.24;102982.19;4963883;28;20054;-80
2023/02/14 11:11:27;;;;;;;24.33;11.67;;;;;;;5.59;92.92;102986.63;4996520;28;20042;-80
2023/02/14 11:13:54;;;;;;;45.90;25.17;;;;;;;5.65;89.36;102986.00;5003574;28;20034;-80
2023/02/14 11:16:32;;;;;;;23.50;11.70;;;;;;;5.48;90.17;102990.59;4991656;28;20133;-81
2023/02/14 11:19:14;;;;;;;22.67;11.17;;;;;;;5.67;90.38;102980.78;4982725;28;20050;-82
2023/02/14 11:21:44;;;;;;;26.30;15.10;;;;;;;5.56;91.61;102981.28;4980001;28;20038;-80
2023/02/14 11:24:35;;;;;;;21.77;12.43;;;;;;;5.47;91.56;102974.81;4972516;28;20041;-80
2023/02/14 11:27:06;;;;;;;23.10;12.67;;;;;;;5.60;94.07;102970.06;4972603;28;20089;-81
2023/02/14 11:29:40;;;;;;;20.80;11.63;;;;;;;5.77;92.16;102957.56;4972810;28;20045;-80
2023/02/14 11:32:12;;;;;;;22.67;11.63;;;;;;;5.68;88.89;102959.84;4980562;28;20061;-81
2023/02/14 11:34:41;;;;;;;21.73;11.07;;;;;;;5.77;91.93;102960.19;4996932;28;20034;-82
2023/02/14 11:37:24;;;;;;;27.03;13.30;;;;;;;5.87;93.08;102961.41;5002327;28;20058;-81
2023/02/14 11:39:54;;;;;;;26.07;12.13;;;;;;;5.87;92.56;102954.44;4992169;28;20097;-80
2023/02/14 11:42:35;;;;;;;20.43;11.37;;;;;;;5.82;91.16;102952.50;4976817;28;20056;-81
2023/02/14 11:45:04;;;;;;;21.13;12.10;;;;;;;6.01;87.66;102952.34;5000892;28;20054;-80
2023/02/14 11:47:36;;;;;;;22.77;12.47;;;;;;;6.18;84.61;102955.53;4964864;28;20499;-81
2023/02/14 11:50:14;;;;;;;20.73;12.90;;;;;;;5.95;84.37;102954.72;4990645;28;20054;-81
2023/02/14 11:52:48;;;;;;;21.87;11.03;;;;;;;5.99;87.23;102948.78;4977011;28;20081;-81
2023/02/14 11:55:34;;;;;;;24.03;11.37;;;;;;;5.73;86.35;102955.69;4976251;28;20054;-81
2023/02/14 11:58:02;;;;;;;17.17;10.43;;;;;;;5.80;86.93;102952.44;4973242;28;20050;-82